sensor_id;sensor_type;location;lat;lon;timestamp;pressure;altitude;pressure_sealevel;temperature;humidity
44140;BME280;29803;51.048;4.686;2023-03-31T00:02:04;100367.81;;;10.22;100.00
44140;BME280;29803;51.048;4.686;2023-03-31T00:04:42;100359.78;;;10.22;100.00
44140;BME280;29803;51.048;4.686;2023-03-31T00:07:15;100349.75;;;10.24;100.00
44140;BME280;29803;51.048;4.686;2023-03-31T00:09:45;100349.41;;;10.27;100.00
44140;BME280;29803;51.048;4.686;2023-03-31T00:12:16;100348.03;;;10.31;100.00
44140;BME280;29803;51.048;4.686;2023-03-31T00:14:47;100342.97;;;10.36;100.00
44140;BME280;29803;51.048;4.686;2023-03-31T00:17:17;100331.88;;;10.39;100.00
44140;BME280;29803;51.048;4.686;2023-03-31T00:19:48;100339.59;;;10.42;100.00
44140;BME280;29803;51.048;4.686;2023-03-31T00:22:19;100337.72;;;10.43;100.00
44140;BME280;29803;51.048;4.686;2023-03-31T00:24:52;100334.03;;;10.44;100.00
44140;BME280;29803;51.048;4.686;2023-03-31T00:27:23;100333.88;;;10.45;100.00
44140;BME280;29803;51.048;4.686;2023-03-31T00:29:53;100334.34;;;10.49;100.00
44140;BME280;29803;51.048;4.686;2023-03-31T00:32:24;100328.81;;;10.50;100.00
44140;BME280;29803;51.048;4.686;2023-03-31T00:34:55;100323.91;;;10.54;100.00
44140;BME280;29803;51.048;4.686;2023-03-31T00:37:25;100333.28;;;10.58;100.00
44140;BME280;29803;51.048;4.686;2023-03-31T00:39:56;100332.38;;;10.66;100.00
44140;BME280;29803;51.048;4.686;2023-03-31T00:42:26;100322.13;;;10.69;100.00
44140;BME280;29803;51.048;4.686;2023-03-31T00:45:20;100314.56;;;10.73;100.00
44140;BME280;29803;51.048;4.686;2023-03-31T00:50:29;100308.66;;;10.77;100.00
44140;BME280;29803;51.048;4.686;2023-03-31T00:53:07;100305.78;;;10.79;100.00
44140;BME280;29803;51.048;4.686;2023-03-31T00:55:44;100295.53;;;10.82;100.00
44140;BME280;29803;51.048;4.686;2023-03-31T00:58:16;100291.19;;;10.81;100.00
44140;BME280;29803;51.048;4.686;2023-03-31T01:00:50;100278.09;;;10.78;100.00
44140;BME280;29803;51.048;4.686;2023-03-31T01:03:22;100284.31;;;10.79;100.00
44140;BME280;29803;51.048;4.686;2023-03-31T01:05:56;100273.28;;;10.74;100.00
44140;BME280;29803;51.048;4.686;2023-03-31T01:08:28;100273.81;;;10.69;100.00
44140;BME280;29803;51.048;4.686;2023-03-31T01:11:02;100259.97;;;10.66;100.00
44140;BME280;29803;51.048;4.686;2023-03-31T01:13:36;100243.38;;;10.62;100.00
44140;BME280;29803;51.048;4.686;2023-03-31T01:16:08;100236.16;;;10.62;100.00
44140;BME280;29803;51.048;4.686;2023-03-31T01:18:39;100236.72;;;10.58;100.00
44140;BME280;29803;51.048;4.686;2023-03-31T01:28:02;100192.78;;;10.44;100.00
44140;BME280;29803;51.048;4.686;2023-03-31T01:36:49;100163.69;;;10.33;100.00
44140;BME280;29803;51.048;4.686;2023-03-31T01:42:16;100161.47;;;10.36;100.00
44140;BME280;29803;51.048;4.686;2023-03-31T01:48:01;100138.72;;;10.32;100.00
44140;BME280;29803;51.048;4.686;2023-03-31T01:50:44;100131.50;;;10.33;100.00
44140;BME280;29803;51.048;4.686;2023-03-31T01:56:08;100117.47;;;10.31;100.00
44140;BME280;29803;51.048;4.686;2023-03-31T01:58:45;100099.06;;;10.28;100.00
44140;BME280;29803;51.048;4.686;2023-03-31T02:04:36;100086.88;;;10.25;100.00
44140;BME280;29803;51.048;4.686;2023-03-31T02:07:17;100070.94;;;10.24;100.00
44140;BME280;29803;51.048;4.686;2023-03-31T02:09:58;100064.28;;;10.20;100.00
44140;BME280;29803;51.048;4.686;2023-03-31T02:12:32;100056.41;;;10.18;100.00
44140;BME280;29803;51.048;4.686;2023-03-31T02:15:07;100037.47;;;10.20;100.00
44140;BME280;29803;51.048;4.686;2023-03-31T02:17:40;100026.75;;;10.20;100.00
44140;BME280;29803;51.048;4.686;2023-03-31T02:20:16;100018.88;;;10.18;100.00
44140;BME280;29803;51.048;4.686;2023-03-31T02:22:52;100007.78;;;10.21;100.00
44140;BME280;29803;51.048;4.686;2023-03-31T02:25:33;100001.09;;;10.25;100.00
44140;BME280;29803;51.048;4.686;2023-03-31T02:28:09;99984.16;;;10.25;100.00
44140;BME280;29803;51.048;4.686;2023-03-31T02:33:34;99981.81;;;10.22;100.00
44140;BME280;29803;51.048;4.686;2023-03-31T02:36:05;99970.00;;;10.16;100.00
44140;BME280;29803;51.048;4.686;2023-03-31T02:38:40;99978.03;;;10.16;100.00
44140;BME280;29803;51.048;4.686;2023-03-31T02:41:12;99970.00;;;10.16;100.00
44140;BME280;29803;51.048;4.686;2023-03-31T02:43:43;99955.94;;;10.14;100.00
44140;BME280;29803;51.048;4.686;2023-03-31T02:46:13;99962.50;;;10.11;100.00
44140;BME280;29803;51.048;4.686;2023-03-31T02:48:47;99960.00;;;10.10;100.00
44140;BME280;29803;51.048;4.686;2023-03-31T02:51:32;99954.19;;;10.06;100.00
44140;BME280;29803;51.048;4.686;2023-03-31T03:00:13;99935.16;;;10.01;100.00
44140;BME280;29803;51.048;4.686;2023-03-31T03:02:55;99936.34;;;9.99;100.00
44140;BME280;29803;51.048;4.686;2023-03-31T03:05:58;99928.50;;;9.97;100.00
44140;BME280;29803;51.048;4.686;2023-03-31T03:09:06;99909.09;;;9.95;100.00
44140;BME280;29803;51.048;4.686;2023-03-31T03:16:52;99892.28;;;9.86;100.00
44140;BME280;29803;51.048;4.686;2023-03-31T03:19:27;99889.03;;;9.91;100.00
44140;BME280;29803;51.048;4.686;2023-03-31T03:21:57;99871.31;;;9.90;100.00
44140;BME280;29803;51.048;4.686;2023-03-31T03:24:28;99871.47;;;9.89;100.00
44140;BME280;29803;51.048;4.686;2023-03-31T03:26:59;99864.31;;;9.89;100.00
44140;BME280;29803;51.048;4.686;2023-03-31T03:29:29;99851.53;;;9.91;100.00
44140;BME280;29803;51.048;4.686;2023-03-31T03:32:00;99860.97;;;9.87;100.00
44140;BME280;29803;51.048;4.686;2023-03-31T03:34:30;99857.25;;;9.88;100.00
44140;BME280;29803;51.048;4.686;2023-03-31T03:37:01;99856.44;;;9.88;100.00
44140;BME280;29803;51.048;4.686;2023-03-31T03:39:31;99834.91;;;9.81;100.00
44140;BME280;29803;51.048;4.686;2023-03-31T03:42:02;99819.03;;;9.79;100.00
44140;BME280;29803;51.048;4.686;2023-03-31T03:44:33;99800.28;;;9.79;100.00
44140;BME280;29803;51.048;4.686;2023-03-31T03:47:03;99791.78;;;9.76;100.00
44140;BME280;29803;51.048;4.686;2023-03-31T03:49:34;99788.44;;;9.74;100.00
44140;BME280;29803;51.048;4.686;2023-03-31T03:52:05;99794.00;;;9.72;100.00
44140;BME280;29803;51.048;4.686;2023-03-31T03:54:35;99783.84;;;9.68;100.00
44140;BME280;29803;51.048;4.686;2023-03-31T03:57:06;99772.88;;;9.63;100.00
44140;BME280;29803;51.048;4.686;2023-03-31T03:59:36;99769.56;;;9.60;100.00
44140;BME280;29803;51.048;4.686;2023-03-31T04:02:07;99776.91;;;9.58;100.00
44140;BME280;29803;51.048;4.686;2023-03-31T04:04:37;99777.94;;;9.57;100.00
44140;BME280;29803;51.048;4.686;2023-03-31T04:07:08;99762.06;;;9.56;100.00
44140;BME280;29803;51.048;4.686;2023-03-31T04:09:38;99785.97;;;9.57;100.00
44140;BME280;29803;51.048;4.686;2023-03-31T04:12:09;99787.91;;;9.64;100.00
44140;BME280;29803;51.048;4.686;2023-03-31T04:14:39;99792.28;;;9.65;100.00
44140;BME280;29803;51.048;4.686;2023-03-31T04:17:10;99776.75;;;9.60;100.00
44140;BME280;29803;51.048;4.686;2023-03-31T04:19:45;99745.38;;;9.54;100.00
44140;BME280;29803;51.048;4.686;2023-03-31T04:22:19;99722.47;;;9.51;100.00
44140;BME280;29803;51.048;4.686;2023-03-31T04:24:50;99705.94;;;9.48;100.00
44140;BME280;29803;51.048;4.686;2023-03-31T04:27:21;99713.53;;;9.44;100.00
44140;BME280;29803;51.048;4.686;2023-03-31T04:29:56;99707.72;;;9.41;100.00
44140;BME280;29803;51.048;4.686;2023-03-31T04:32:26;99692.41;;;9.34;100.00
44140;BME280;29803;51.048;4.686;2023-03-31T04:34:57;99687.22;;;9.33;100.00
44140;BME280;29803;51.048;4.686;2023-03-31T04:37:31;99683.91;;;9.31;100.00
44140;BME280;29803;51.048;4.686;2023-03-31T04:40:04;99688.63;;;9.29;100.00
44140;BME280;29803;51.048;4.686;2023-03-31T04:42:37;99673.75;;;9.26;100.00
44140;BME280;29803;51.048;4.686;2023-03-31T04:45:08;99665.94;;;9.25;100.00
44140;BME280;29803;51.048;4.686;2023-03-31T04:47:39;99668.13;;;9.21;100.00
44140;BME280;29803;51.048;4.686;2023-03-31T04:50:09;99656.97;;;9.18;100.00
44140;BME280;29803;51.048;4.686;2023-03-31T04:52:40;99655.31;;;9.17;100.00
44140;BME280;29803;51.048;4.686;2023-03-31T04:55:10;99644.81;;;9.15;100.00
44140;BME280;29803;51.048;4.686;2023-03-31T04:57:41;99639.19;;;9.10;100.00
44140;BME280;29803;51.048;4.686;2023-03-31T05:00:12;99636.66;;;9.08;100.00
44140;BME280;29803;51.048;4.686;2023-03-31T05:02:43;99637.88;;;9.06;100.00
44140;BME280;29803;51.048;4.686;2023-03-31T05:05:14;99631.25;;;9.02;100.00
44140;BME280;29803;51.048;4.686;2023-03-31T05:07:44;99631.25;;;9.02;100.00
44140;BME280;29803;51.048;4.686;2023-03-31T05:10:15;99616.41;;;8.99;100.00
44140;BME280;29803;51.048;4.686;2023-03-31T05:12:46;99616.22;;;9.01;100.00
44140;BME280;29803;51.048;4.686;2023-03-31T05:15:16;99609.00;;;9.01;100.00
44140;BME280;29803;51.048;4.686;2023-03-31T05:17:47;99612.31;;;9.03;100.00
44140;BME280;29803;51.048;4.686;2023-03-31T05:20:18;99603.75;;;9.08;100.00
44140;BME280;29803;51.048;4.686;2023-03-31T05:22:49;99600.16;;;9.16;100.00
44140;BME280;29803;51.048;4.686;2023-03-31T05:25:20;99599.66;;;9.27;100.00
44140;BME280;29803;51.048;4.686;2023-03-31T05:27:51;99598.34;;;9.38;100.00
44140;BME280;29803;51.048;4.686;2023-03-31T05:30:22;99607.84;;;9.40;100.00
44140;BME280;29803;51.048;4.686;2023-03-31T05:32:55;99607.44;;;9.43;100.00
44140;BME280;29803;51.048;4.686;2023-03-31T05:35:26;99594.31;;;9.48;100.00
44140;BME280;29803;51.048;4.686;2023-03-31T05:37:56;99594.59;;;9.53;100.00
44140;BME280;29803;51.048;4.686;2023-03-31T05:40:27;99598.25;;;9.67;100.00
44140;BME280;29803;51.048;4.686;2023-03-31T05:42:57;99578.28;;;9.70;100.00
44140;BME280;29803;51.048;4.686;2023-03-31T05:45:28;99580.66;;;9.79;100.00
44140;BME280;29803;51.048;4.686;2023-03-31T05:47:58;99580.72;;;9.86;100.00
44140;BME280;29803;51.048;4.686;2023-03-31T05:50:29;99580.59;;;9.94;100.00
44140;BME280;29803;51.048;4.686;2023-03-31T05:53:00;99579.16;;;9.98;100.00
44140;BME280;29803;51.048;4.686;2023-03-31T05:55:30;99562.91;;;10.00;100.00
44140;BME280;29803;51.048;4.686;2023-03-31T05:58:01;99565.38;;;10.01;100.00
44140;BME280;29803;51.048;4.686;2023-03-31T06:00:31;99566.00;;;10.03;100.00
44140;BME280;29803;51.048;4.686;2023-03-31T06:03:02;99563.56;;;10.08;100.00
44140;BME280;29803;51.048;4.686;2023-03-31T06:05:33;99562.63;;;10.16;100.00
44140;BME280;29803;51.048;4.686;2023-03-31T06:08:04;99560.56;;;10.18;100.00
44140;BME280;29803;51.048;4.686;2023-03-31T06:10:37;99560.38;;;10.20;100.00
44140;BME280;29803;51.048;4.686;2023-03-31T06:13:09;99542.81;;;10.17;100.00
44140;BME280;29803;51.048;4.686;2023-03-31T06:15:40;99545.94;;;10.21;100.00
44140;BME280;29803;51.048;4.686;2023-03-31T06:18:11;99530.75;;;10.28;100.00
44140;BME280;29803;51.048;4.686;2023-03-31T06:20:41;99536.56;;;10.31;100.00
44140;BME280;29803;51.048;4.686;2023-03-31T06:23:12;99530.63;;;10.36;100.00
44140;BME280;29803;51.048;4.686;2023-03-31T06:25:42;99539.28;;;10.38;100.00
44140;BME280;29803;51.048;4.686;2023-03-31T06:28:13;99535.38;;;10.41;100.00
44140;BME280;29803;51.048;4.686;2023-03-31T06:30:44;99529.22;;;10.47;100.00
44140;BME280;29803;51.048;4.686;2023-03-31T06:33:15;99536.69;;;10.51;100.00
44140;BME280;29803;51.048;4.686;2023-03-31T06:35:45;99534.63;;;10.53;100.00
44140;BME280;29803;51.048;4.686;2023-03-31T06:38:16;99530.31;;;10.59;100.00
44140;BME280;29803;51.048;4.686;2023-03-31T06:40:46;99523.53;;;10.63;100.00
44140;BME280;29803;51.048;4.686;2023-03-31T06:43:17;99518.22;;;10.70;100.00
44140;BME280;29803;51.048;4.686;2023-03-31T06:45:48;99519.91;;;10.77;100.00
44140;BME280;29803;51.048;4.686;2023-03-31T06:48:18;99518.69;;;10.80;100.00
44140;BME280;29803;51.048;4.686;2023-03-31T06:50:49;99514.97;;;10.87;100.00
44140;BME280;29803;51.048;4.686;2023-03-31T06:53:20;99522.03;;;10.95;100.00
44140;BME280;29803;51.048;4.686;2023-03-31T06:55:51;99517.91;;;10.99;100.00
44140;BME280;29803;51.048;4.686;2023-03-31T06:58:22;99512.59;;;11.06;100.00
44140;BME280;29803;51.048;4.686;2023-03-31T07:00:52;99505.59;;;11.18;100.00
44140;BME280;29803;51.048;4.686;2023-03-31T07:03:23;99507.66;;;11.23;100.00
44140;BME280;29803;51.048;4.686;2023-03-31T07:05:54;99512.44;;;11.27;100.00
44140;BME280;29803;51.048;4.686;2023-03-31T07:08:25;99511.59;;;11.33;100.00
44140;BME280;29803;51.048;4.686;2023-03-31T07:10:57;99507.69;;;11.36;100.00
44140;BME280;29803;51.048;4.686;2023-03-31T07:13:28;99496.56;;;11.46;100.00
44140;BME280;29803;51.048;4.686;2023-03-31T07:15:59;99506.25;;;11.53;100.00
44140;BME280;29803;51.048;4.686;2023-03-31T07:18:29;99501.13;;;11.65;100.00
44140;BME280;29803;51.048;4.686;2023-03-31T07:21:01;99499.47;;;11.77;100.00
44140;BME280;29803;51.048;4.686;2023-03-31T07:23:33;99501.97;;;11.92;100.00
44140;BME280;29803;51.048;4.686;2023-03-31T07:26:04;99494.09;;;12.04;100.00
44140;BME280;29803;51.048;4.686;2023-03-31T07:28:35;99493.06;;;12.11;100.00
44140;BME280;29803;51.048;4.686;2023-03-31T07:31:24;99482.53;;;12.10;100.00
44140;BME280;29803;51.048;4.686;2023-03-31T07:33:55;99492.88;;;12.06;100.00
44140;BME280;29803;51.048;4.686;2023-03-31T07:36:25;99488.34;;;12.00;100.00
44140;BME280;29803;51.048;4.686;2023-03-31T07:38:56;99476.09;;;12.04;100.00
44140;BME280;29803;51.048;4.686;2023-03-31T07:41:27;99483.34;;;12.04;100.00
44140;BME280;29803;51.048;4.686;2023-03-31T07:43:57;99479.44;;;11.93;100.00
44140;BME280;29803;51.048;4.686;2023-03-31T07:46:28;99491.66;;;11.96;100.00
44140;BME280;29803;51.048;4.686;2023-03-31T07:48:58;99490.59;;;11.97;100.00
44140;BME280;29803;51.048;4.686;2023-03-31T07:51:31;99496.59;;;11.99;100.00
44140;BME280;29803;51.048;4.686;2023-03-31T07:54:02;99500.72;;;11.88;100.00
44140;BME280;29803;51.048;4.686;2023-03-31T07:56:32;99497.00;;;11.89;100.00
44140;BME280;29803;51.048;4.686;2023-03-31T07:59:03;99505.28;;;11.87;100.00
44140;BME280;29803;51.048;4.686;2023-03-31T08:01:34;99494.91;;;11.78;100.00
44140;BME280;29803;51.048;4.686;2023-03-31T08:04:05;99501.13;;;11.65;100.00
44140;BME280;29803;51.048;4.686;2023-03-31T08:06:37;99492.22;;;11.58;100.00
44140;BME280;29803;51.048;4.686;2023-03-31T08:09:07;99494.91;;;11.58;100.00
44140;BME280;29803;51.048;4.686;2023-03-31T08:11:38;99493.25;;;11.44;100.00
44140;BME280;29803;51.048;4.686;2023-03-31T08:14:09;99509.56;;;11.49;100.00
44140;BME280;29803;51.048;4.686;2023-03-31T08:16:39;99495.53;;;11.47;100.00
44140;BME280;29803;51.048;4.686;2023-03-31T08:19:10;99487.06;;;11.50;100.00
44140;BME280;29803;51.048;4.686;2023-03-31T08:21:40;99493.66;;;11.54;100.00
44140;BME280;29803;51.048;4.686;2023-03-31T08:24:11;99493.69;;;11.60;100.00
44140;BME280;29803;51.048;4.686;2023-03-31T08:26:41;99482.09;;;11.53;100.00
44140;BME280;29803;51.048;4.686;2023-03-31T08:29:12;99484.59;;;11.61;100.00
44140;BME280;29803;51.048;4.686;2023-03-31T08:31:43;99482.50;;;11.63;100.00
44140;BME280;29803;51.048;4.686;2023-03-31T08:34:14;99477.56;;;11.67;100.00
44140;BME280;29803;51.048;4.686;2023-03-31T08:36:44;99493.50;;;11.82;100.00
44140;BME280;29803;51.048;4.686;2023-03-31T08:39:15;99480.06;;;11.82;100.00
44140;BME280;29803;51.048;4.686;2023-03-31T08:41:56;99463.94;;;11.88;100.00
44140;BME280;29803;51.048;4.686;2023-03-31T08:47:21;99466.41;;;12.03;100.00
44140;BME280;29803;51.048;4.686;2023-03-31T08:49:54;99464.75;;;12.15;100.00
44140;BME280;29803;51.048;4.686;2023-03-31T08:52:32;99469.94;;;11.90;100.00
44140;BME280;29803;51.048;4.686;2023-03-31T08:55:11;99463.72;;;12.03;100.00
44140;BME280;29803;51.048;4.686;2023-03-31T08:57:52;99454.81;;;12.09;100.00
44140;BME280;29803;51.048;4.686;2023-03-31T09:00:24;99452.53;;;12.13;100.00
44140;BME280;29803;51.048;4.686;2023-03-31T09:03:13;99450.25;;;12.16;100.00
44140;BME280;29803;51.048;4.686;2023-03-31T09:05:53;99436.38;;;12.26;100.00
44140;BME280;29803;51.048;4.686;2023-03-31T09:16:47;99431.97;;;12.38;100.00
44140;BME280;29803;51.048;4.686;2023-03-31T09:22:32;99432.22;;;12.24;100.00
44140;BME280;29803;51.048;4.686;2023-03-31T09:25:25;99422.13;;;12.26;100.00
44140;BME280;29803;51.048;4.686;2023-03-31T09:27:58;99422.69;;;12.34;100.00
44140;BME280;29803;51.048;4.686;2023-03-31T09:30:32;99419.81;;;12.36;100.00
44140;BME280;29803;51.048;4.686;2023-03-31T09:36:29;99418.34;;;12.40;100.00
44140;BME280;29803;51.048;4.686;2023-03-31T09:39:00;99419.34;;;12.46;100.00
44140;BME280;29803;51.048;4.686;2023-03-31T09:41:30;99418.44;;;12.58;100.00
44140;BME280;29803;51.048;4.686;2023-03-31T09:44:01;99418.28;;;12.53;100.00
44140;BME280;29803;51.048;4.686;2023-03-31T09:46:34;99409.69;;;12.69;100.00
44140;BME280;29803;51.048;4.686;2023-03-31T09:49:12;99401.44;;;12.71;100.00
44140;BME280;29803;51.048;4.686;2023-03-31T09:51:45;99402.69;;;12.68;100.00
44140;BME280;29803;51.048;4.686;2023-03-31T09:54:38;99406.41;;;12.67;100.00
44140;BME280;29803;51.048;4.686;2023-03-31T09:57:13;99384.28;;;12.65;100.00
44140;BME280;29803;51.048;4.686;2023-03-31T09:59:49;99379.31;;;12.62;100.00
44140;BME280;29803;51.048;4.686;2023-03-31T10:10:49;99372.69;;;12.65;100.00
44140;BME280;29803;51.048;4.686;2023-03-31T10:13:24;99387.00;;;12.59;100.00
44140;BME280;29803;51.048;4.686;2023-03-31T10:16:05;99371.94;;;12.44;100.00
44140;BME280;29803;51.048;4.686;2023-03-31T10:18:51;99389.31;;;12.55;100.00
44140;BME280;29803;51.048;4.686;2023-03-31T10:21:37;99388.00;;;12.64;100.00
44140;BME280;29803;51.048;4.686;2023-03-31T10:24:09;99384.41;;;12.77;100.00
44140;BME280;29803;51.048;4.686;2023-03-31T10:26:40;99366.19;;;12.41;100.00
44140;BME280;29803;51.048;4.686;2023-03-31T10:29:12;99381.09;;;12.37;100.00
44140;BME280;29803;51.048;4.686;2023-03-31T10:31:45;99372.84;;;12.32;100.00
44140;BME280;29803;51.048;4.686;2023-03-31T10:34:17;99375.84;;;12.10;100.00
44140;BME280;29803;51.048;4.686;2023-03-31T10:36:50;99373.94;;;12.17;100.00
44140;BME280;29803;51.048;4.686;2023-03-31T10:39:27;99362.97;;;12.26;100.00
44140;BME280;29803;51.048;4.686;2023-03-31T10:41:58;99350.34;;;12.26;100.00
44140;BME280;29803;51.048;4.686;2023-03-31T10:44:31;99365.38;;;12.34;100.00
44140;BME280;29803;51.048;4.686;2023-03-31T10:49:56;99343.69;;;12.29;100.00
44140;BME280;29803;51.048;4.686;2023-03-31T10:52:26;99361.41;;;12.43;100.00
44140;BME280;29803;51.048;4.686;2023-03-31T10:54:58;99330.50;;;12.59;100.00
44140;BME280;29803;51.048;4.686;2023-03-31T10:57:34;99347.16;;;12.42;100.00
44140;BME280;29803;51.048;4.686;2023-03-31T11:06:15;99358.69;;;12.50;100.00
44140;BME280;29803;51.048;4.686;2023-03-31T11:09:13;99333.66;;;12.49;100.00
44140;BME280;29803;51.048;4.686;2023-03-31T11:11:57;99346.09;;;12.50;100.00
44140;BME280;29803;51.048;4.686;2023-03-31T11:29:32;99357.25;;;12.47;100.00
44140;BME280;29803;51.048;4.686;2023-03-31T11:32:22;99328.09;;;12.51;100.00
44140;BME280;29803;51.048;4.686;2023-03-31T11:43:42;99315.19;;;12.59;100.00
44140;BME280;29803;51.048;4.686;2023-03-31T11:49:10;99311.94;;;12.82;100.00
44140;BME280;29803;51.048;4.686;2023-03-31T11:51:51;99307.63;;;13.06;100.00
44140;BME280;29803;51.048;4.686;2023-03-31T11:54:29;99299.47;;;13.13;100.00
44140;BME280;29803;51.048;4.686;2023-03-31T11:57:10;99289.38;;;13.33;100.00
44140;BME280;29803;51.048;4.686;2023-03-31T11:59:43;99292.88;;;13.34;100.00
44140;BME280;29803;51.048;4.686;2023-03-31T12:02:17;99276.19;;;13.25;100.00
44140;BME280;29803;51.048;4.686;2023-03-31T12:04:51;99284.19;;;13.57;100.00
44140;BME280;29803;51.048;4.686;2023-03-31T12:07:31;99287.28;;;13.35;100.00
44140;BME280;29803;51.048;4.686;2023-03-31T12:15:40;99270.03;;;12.93;100.00
44140;BME280;29803;51.048;4.686;2023-03-31T12:18:17;99280.03;;;12.54;100.00
44140;BME280;29803;51.048;4.686;2023-03-31T12:20:54;99274.94;;;12.46;100.00
44140;BME280;29803;51.048;4.686;2023-03-31T12:23:28;99295.47;;;12.34;100.00
44140;BME280;29803;51.048;4.686;2023-03-31T12:29:11;99294.69;;;12.27;100.00
44140;BME280;29803;51.048;4.686;2023-03-31T12:31:45;99297.56;;;11.80;100.00
44140;BME280;29803;51.048;4.686;2023-03-31T12:34:18;99293.06;;;11.61;100.00
44140;BME280;29803;51.048;4.686;2023-03-31T12:48:52;99286.91;;;11.34;100.00
44140;BME280;29803;51.048;4.686;2023-03-31T12:54:31;99270.59;;;11.29;100.00
44140;BME280;29803;51.048;4.686;2023-03-31T12:57:12;99268.94;;;11.41;100.00
44140;BME280;29803;51.048;4.686;2023-03-31T12:59:45;99265.41;;;11.47;100.00
44140;BME280;29803;51.048;4.686;2023-03-31T13:02:21;99271.56;;;11.61;100.00
44140;BME280;29803;51.048;4.686;2023-03-31T13:04:53;99273.19;;;11.68;100.00
44140;BME280;29803;51.048;4.686;2023-03-31T13:09:57;99258.47;;;11.78;100.00
44140;BME280;29803;51.048;4.686;2023-03-31T13:12:28;99226.25;;;11.78;100.00
44140;BME280;29803;51.048;4.686;2023-03-31T13:15:03;99249.78;;;11.89;100.00
44140;BME280;29803;51.048;4.686;2023-03-31T13:17:35;99229.09;;;11.89;100.00
44140;BME280;29803;51.048;4.686;2023-03-31T13:23:16;99247.72;;;11.91;100.00
44140;BME280;29803;51.048;4.686;2023-03-31T13:25:51;99253.47;;;12.01;100.00
44140;BME280;29803;51.048;4.686;2023-03-31T13:30:56;99238.19;;;11.95;100.00
44140;BME280;29803;51.048;4.686;2023-03-31T13:33:56;99240.88;;;11.95;100.00
44140;BME280;29803;51.048;4.686;2023-03-31T13:58:27;99232.13;;;11.55;100.00
44140;BME280;29803;51.048;4.686;2023-03-31T14:01:08;99236.66;;;11.54;100.00
44140;BME280;29803;51.048;4.686;2023-03-31T14:06:40;99247.81;;;11.58;100.00
44140;BME280;29803;51.048;4.686;2023-03-31T14:11:51;99252.78;;;11.54;100.00
44140;BME280;29803;51.048;4.686;2023-03-31T14:14:23;99237.13;;;11.45;100.00
44140;BME280;29803;51.048;4.686;2023-03-31T14:17:08;99238.31;;;11.49;100.00
44140;BME280;29803;51.048;4.686;2023-03-31T14:25:50;99237.13;;;11.45;100.00
44140;BME280;29803;51.048;4.686;2023-03-31T14:28:25;99226.75;;;11.55;100.00
44140;BME280;29803;51.048;4.686;2023-03-31T14:37:00;99230.47;;;11.60;100.00
44140;BME280;29803;51.048;4.686;2023-03-31T14:39:37;99203.59;;;11.60;100.00
44140;BME280;29803;51.048;4.686;2023-03-31T14:42:13;99209.34;;;11.71;100.00
44140;BME280;29803;51.048;4.686;2023-03-31T14:44:45;99212.22;;;11.76;100.00
44140;BME280;29803;51.048;4.686;2023-03-31T14:47:32;99230.19;;;11.68;100.00
44140;BME280;29803;51.048;4.686;2023-03-31T14:50:12;99201.75;;;11.54;100.00
44140;BME280;29803;51.048;4.686;2023-03-31T14:53:00;99207.88;;;11.75;100.00
44140;BME280;29803;51.048;4.686;2023-03-31T14:55:32;99199.25;;;11.66;100.00
44140;BME280;29803;51.048;4.686;2023-03-31T14:58:03;99205.22;;;11.68;100.00
44140;BME280;29803;51.048;4.686;2023-03-31T15:00:35;99195.50;;;11.67;100.00
44140;BME280;29803;51.048;4.686;2023-03-31T15:03:12;99195.34;;;11.55;100.00
44140;BME280;29803;51.048;4.686;2023-03-31T15:05:44;99193.28;;;11.57;100.00
44140;BME280;29803;51.048;4.686;2023-03-31T15:08:19;99193.31;;;11.51;100.00
44140;BME280;29803;51.048;4.686;2023-03-31T15:10:56;99187.31;;;11.55;100.00
44140;BME280;29803;51.048;4.686;2023-03-31T15:13:33;99193.22;;;11.64;100.00
44140;BME280;29803;51.048;4.686;2023-03-31T15:16:35;99190.78;;;11.62;100.00
44140;BME280;29803;51.048;4.686;2023-03-31T15:19:14;99191.84;;;11.55;100.00
44140;BME280;29803;51.048;4.686;2023-03-31T15:21:52;99190.81;;;11.56;100.00
44140;BME280;29803;51.048;4.686;2023-03-31T15:24:23;99179.25;;;11.49;100.00
44140;BME280;29803;51.048;4.686;2023-03-31T15:27:09;99201.19;;;11.39;100.00
44140;BME280;29803;51.048;4.686;2023-03-31T15:29:46;99201.38;;;11.44;100.00
44140;BME280;29803;51.048;4.686;2023-03-31T15:32:37;99202.22;;;11.38;100.00
44140;BME280;29803;51.048;4.686;2023-03-31T15:38:05;99179.69;;;11.39;100.00
44140;BME280;29803;51.048;4.686;2023-03-31T15:40:38;99187.97;;;11.37;100.00
44140;BME280;29803;51.048;4.686;2023-03-31T15:45:59;99172.72;;;11.31;100.00
44140;BME280;29803;51.048;4.686;2023-03-31T15:48:50;99186.28;;;11.43;100.00
44140;BME280;29803;51.048;4.686;2023-03-31T15:51:29;99178.25;;;11.50;100.00
44140;BME280;29803;51.048;4.686;2023-03-31T15:54:00;99166.81;;;11.54;100.00
44140;BME280;29803;51.048;4.686;2023-03-31T15:56:46;99174.47;;;11.57;100.00
44140;BME280;29803;51.048;4.686;2023-03-31T16:08:37;99192.31;;;11.45;100.00
44140;BME280;29803;51.048;4.686;2023-03-31T16:11:32;99180.78;;;11.31;100.00
44140;BME280;29803;51.048;4.686;2023-03-31T16:14:25;99183.72;;;11.10;100.00
44140;BME280;29803;51.048;4.686;2023-03-31T16:17:01;99195.50;;;10.96;100.00
44140;BME280;29803;51.048;4.686;2023-03-31T16:20:02;99200.88;;;10.89;100.00
44140;BME280;29803;51.048;4.686;2023-03-31T16:22:40;99192.22;;;10.80;100.00
44140;BME280;29803;51.048;4.686;2023-03-31T16:25:13;99194.69;;;10.69;100.00
44140;BME280;29803;51.048;4.686;2023-03-31T16:27:49;99200.28;;;10.60;100.00
44140;BME280;29803;51.048;4.686;2023-03-31T16:30:32;99204.00;;;10.46;100.00
44140;BME280;29803;51.048;4.686;2023-03-31T16:33:06;99197.78;;;10.39;100.00
44140;BME280;29803;51.048;4.686;2023-03-31T16:35:40;99191.34;;;10.20;100.00
44140;BME280;29803;51.048;4.686;2023-03-31T16:38:11;99192.41;;;10.19;100.00